An Xiu Shan — BRQV — position and weather

sailwx.info

Track history (hours):
 
Tides and Currents Weather Stations Pressure Air Temp Water Temp Dewpoint Dewpoint Depression Visibility Wind Speed Wind Dir Waves Ship Positions

An Xiu Shan

Last reported at 2017-Feb-08 23:32 UTC. Time now 2017-Feb-21 03:02 UTC.
Position N 38°16' E 121°28'.
Warning: this ship's position is 12 days out of date.

Length 199 m; draft 12.6 m.

Type: Cargo ship. MMSI: 413195000.

Date/timePositionNaut miles runAvg speedWind from/ knotsBaromVisibWave heightAir tempDewpointWater temp
2017-Feb-08 23:32N 38°16' E 121°28'1510.7
2017-Feb-08 22:11N 38°24' E 121°13'711.1
2017-Feb-08 21:33N 38°28' E 121°05'1111.0
2017-Feb-08 20:33N 38°34' E 120°53'1110.6
2017-Feb-08 19:33N 38°39' E 120°42'  
2017-Feb-03 00:06N 38°59' E 120°36'811.2
2017-Feb-02 23:24N 38°54' E 120°43'1511.6
2017-Feb-02 22:06N 38°42' E 120°55'712.4
2017-Feb-02 21:34N 38°36' E 120°59'1212.4
2017-Feb-02 20:33N 38°29' E 121°11'1312.1
2017-Feb-02 19:26N 38°21' E 121°26'1112.1
2017-Feb-02 18:30N 38°15' E 121°38'1111.8
2017-Feb-02 17:34N 38°09' E 121°49'1211.8
2017-Feb-02 16:30N 38°02' E 122°02'1111.9
2017-Feb-02 15:33N 37°55' E 122°14'396 9.1
2017-Jan-31 20:08N 31°20' E 121°40'610.6
2017-Jan-31 19:33N 31°23' E 121°34'9 9.4
2017-Jan-31 18:34N 31°29' E 121°26'9 9.1
2017-Jan-31 17:34N 31°35' E 121°18'1313.1
2017-Jan-31 16:33N 31°44' E 121°06'1312.6
2017-Jan-31 15:31N 31°51' E 120°53'2211.3
2017-Jan-31 13:32N 32°02' E 120°30'  
Track history (hours):
 
Tides and Currents Weather Stations Pressure Air Temp Water Temp Dewpoint Dewpoint Depression Visibility Wind Speed Wind Dir Waves Ship Positions

An Xiu Shan

Last reported at 2017-Feb-08 23:32 UTC. Time now 2017-Feb-21 03:02 UTC.
Position N 38°16' E 121°28'.
Warning: this ship's position is 12 days out of date.

Length 199 m; draft 12.6 m.

Type: Cargo ship. MMSI: 413195000.

Date/timePositionNaut miles runAvg speedWind from/ knotsBaromVisibWave heightAir tempDewpointWater temp
2017-Feb-08 23:32N 38°16' E 121°28'1510.7
2017-Feb-08 22:11N 38°24' E 121°13'711.1
2017-Feb-08 21:33N 38°28' E 121°05'1111.0
2017-Feb-08 20:33N 38°34' E 120°53'1110.6
2017-Feb-08 19:33N 38°39' E 120°42'  
2017-Feb-03 00:06N 38°59' E 120°36'811.2
2017-Feb-02 23:24N 38°54' E 120°43'1511.6
2017-Feb-02 22:06N 38°42' E 120°55'712.4
2017-Feb-02 21:34N 38°36' E 120°59'1212.4
2017-Feb-02 20:33N 38°29' E 121°11'1312.1
2017-Feb-02 19:26N 38°21' E 121°26'1112.1
2017-Feb-02 18:30N 38°15' E 121°38'1111.8
2017-Feb-02 17:34N 38°09' E 121°49'1211.8
2017-Feb-02 16:30N 38°02' E 122°02'1111.9
2017-Feb-02 15:33N 37°55' E 122°14'396 9.1
2017-Jan-31 20:08N 31°20' E 121°40'610.6
2017-Jan-31 19:33N 31°23' E 121°34'9 9.4
2017-Jan-31 18:34N 31°29' E 121°26'9 9.1
2017-Jan-31 17:34N 31°35' E 121°18'1313.1
2017-Jan-31 16:33N 31°44' E 121°06'1312.6
2017-Jan-31 15:31N 31°51' E 120°53'2211.3
2017-Jan-31 13:32N 32°02' E 120°30'  

Dump ship's entire track history